sensor_id;sensor_type;location;lat;lon;timestamp;pressure;altitude;pressure_sealevel;temperature;humidity
39793;BME280;26080;42.264;24.536;2023-04-24T00:00:14;99229.13;;;7.15;100.00
39793;BME280;26080;42.264;24.536;2023-04-24T00:02:41;99211.88;;;7.11;100.00
39793;BME280;26080;42.264;24.536;2023-04-24T00:05:12;99185.50;;;6.95;100.00
39793;BME280;26080;42.264;24.536;2023-04-24T00:07:39;99209.19;;;7.14;100.00
39793;BME280;26080;42.264;24.536;2023-04-24T00:10:06;99171.50;;;6.99;100.00
39793;BME280;26080;42.264;24.536;2023-04-24T00:12:32;99193.38;;;6.94;100.00
39793;BME280;26080;42.264;24.536;2023-04-24T00:14:57;99199.00;;;6.81;100.00
39793;BME280;26080;42.264;24.536;2023-04-24T00:17:22;99203.13;;;6.62;100.00
39793;BME280;26080;42.264;24.536;2023-04-24T00:19:48;99190.63;;;6.47;100.00
39793;BME280;26080;42.264;24.536;2023-04-24T00:22:17;99185.09;;;6.30;100.00
39793;BME280;26080;42.264;24.536;2023-04-24T00:24:43;99178.00;;;6.35;100.00
39793;BME280;26080;42.264;24.536;2023-04-24T00:27:08;99197.19;;;6.59;100.00
39793;BME280;26080;42.264;24.536;2023-04-24T00:29:34;99198.09;;;6.56;100.00
39793;BME280;26080;42.264;24.536;2023-04-24T00:31:59;99207.03;;;6.49;100.00
39793;BME280;26080;42.264;24.536;2023-04-24T00:34:25;99197.63;;;6.45;100.00
39793;BME280;26080;42.264;24.536;2023-04-24T00:36:50;99198.97;;;6.57;100.00
39793;BME280;26080;42.264;24.536;2023-04-24T00:39:20;99199.72;;;6.60;100.00
39793;BME280;26080;42.264;24.536;2023-04-24T00:41:46;99185.03;;;6.59;100.00
39793;BME280;26080;42.264;24.536;2023-04-24T00:44:13;99193.72;;;6.58;100.00
39793;BME280;26080;42.264;24.536;2023-04-24T00:46:39;99199.81;;;6.57;100.00
39793;BME280;26080;42.264;24.536;2023-04-24T00:49:05;99196.34;;;6.58;100.00
39793;BME280;26080;42.264;24.536;2023-04-24T00:51:31;99195.59;;;6.53;100.00
39793;BME280;26080;42.264;24.536;2023-04-24T00:53:58;99190.91;;;6.38;100.00
39793;BME280;26080;42.264;24.536;2023-04-24T00:56:23;99196.09;;;6.38;100.00
39793;BME280;26080;42.264;24.536;2023-04-24T00:58:49;99200.78;;;6.27;100.00
39793;BME280;26080;42.264;24.536;2023-04-24T01:01:15;99179.78;;;6.06;100.00
39793;BME280;26080;42.264;24.536;2023-04-24T01:03:41;99203.13;;;6.08;100.00
39793;BME280;26080;42.264;24.536;2023-04-24T01:06:06;99206.19;;;5.92;100.00
39793;BME280;26080;42.264;24.536;2023-04-24T01:08:35;99203.88;;;5.82;100.00
39793;BME280;26080;42.264;24.536;2023-04-24T01:11:03;99196.44;;;5.70;100.00
39793;BME280;26080;42.264;24.536;2023-04-24T01:13:29;99199.22;;;5.63;100.00
39793;BME280;26080;42.264;24.536;2023-04-24T01:15:54;99202.03;;;5.56;100.00
39793;BME280;26080;42.264;24.536;2023-04-24T01:18:19;99158.69;;;5.27;100.00
39793;BME280;26080;42.264;24.536;2023-04-24T01:20:48;99200.31;;;5.55;100.00
39793;BME280;26080;42.264;24.536;2023-04-24T01:23:15;99194.19;;;5.57;100.00
39793;BME280;26080;42.264;24.536;2023-04-24T01:25:42;99195.97;;;5.55;100.00
39793;BME280;26080;42.264;24.536;2023-04-24T01:28:08;99195.19;;;5.53;100.00
39793;BME280;26080;42.264;24.536;2023-04-24T01:30:33;99203.31;;;5.71;100.00
39793;BME280;26080;42.264;24.536;2023-04-24T01:32:59;99192.38;;;5.59;100.00
39793;BME280;26080;42.264;24.536;2023-04-24T01:35:25;99188.38;;;5.49;100.00
39793;BME280;26080;42.264;24.536;2023-04-24T01:37:51;99189.34;;;5.45;100.00
39793;BME280;26080;42.264;24.536;2023-04-24T01:40:16;99186.22;;;5.32;100.00
39793;BME280;26080;42.264;24.536;2023-04-24T01:42:42;99186.19;;;5.34;100.00
39793;BME280;26080;42.264;24.536;2023-04-24T01:45:10;99187.91;;;5.35;100.00
39793;BME280;26080;42.264;24.536;2023-04-24T01:47:36;99193.00;;;5.38;100.00
39793;BME280;26080;42.264;24.536;2023-04-24T01:50:02;99179.69;;;5.50;100.00
39793;BME280;26080;42.264;24.536;2023-04-24T01:52:27;99171.53;;;5.62;100.00
39793;BME280;26080;42.264;24.536;2023-04-24T01:54:56;99168.03;;;5.63;100.00
39793;BME280;26080;42.264;24.536;2023-04-24T01:57:22;99140.97;;;5.41;100.00
39793;BME280;26080;42.264;24.536;2023-04-24T01:59:47;99166.41;;;5.59;100.00
39793;BME280;26080;42.264;24.536;2023-04-24T02:02:13;99162.56;;;5.73;100.00
39793;BME280;26080;42.264;24.536;2023-04-24T02:04:39;99163.41;;;5.73;100.00
39793;BME280;26080;42.264;24.536;2023-04-24T02:07:04;99157.44;;;5.70;100.00
39793;BME280;26080;42.264;24.536;2023-04-24T02:09:30;99158.00;;;5.81;100.00
39793;BME280;26080;42.264;24.536;2023-04-24T02:11:55;99162.00;;;5.92;100.00
39793;BME280;26080;42.264;24.536;2023-04-24T02:14:21;99164.72;;;5.86;100.00
39793;BME280;26080;42.264;24.536;2023-04-24T02:16:46;99154.94;;;5.96;100.00
39793;BME280;26080;42.264;24.536;2023-04-24T02:19:12;99159.53;;;5.86;100.00
39793;BME280;26080;42.264;24.536;2023-04-24T02:21:37;99154.34;;;5.86;100.00
39793;BME280;26080;42.264;24.536;2023-04-24T02:24:03;99152.47;;;5.93;100.00
39793;BME280;26080;42.264;24.536;2023-04-24T02:26:28;99155.06;;;5.93;100.00
39793;BME280;26080;42.264;24.536;2023-04-24T02:28:55;99129.88;;;5.65;100.00
39793;BME280;26080;42.264;24.536;2023-04-24T02:31:20;99164.19;;;5.77;100.00
39793;BME280;26080;42.264;24.536;2023-04-24T02:33:46;99159.16;;;5.71;100.00
39793;BME280;26080;42.264;24.536;2023-04-24T02:36:11;99155.56;;;5.75;100.00
39793;BME280;26080;42.264;24.536;2023-04-24T02:38:36;99151.34;;;5.71;100.00
39793;BME280;26080;42.264;24.536;2023-04-24T02:41:02;99154.19;;;5.63;100.00
39793;BME280;26080;42.264;24.536;2023-04-24T02:43:31;99143.56;;;5.71;100.00
39793;BME280;26080;42.264;24.536;2023-04-24T02:45:56;99145.94;;;5.78;100.00
39793;BME280;26080;42.264;24.536;2023-04-24T02:48:22;99143.56;;;5.71;100.00
39793;BME280;26080;42.264;24.536;2023-04-24T02:50:47;99144.50;;;5.68;100.00
39793;BME280;26080;42.264;24.536;2023-04-24T02:53:12;99151.47;;;5.68;100.00
39793;BME280;26080;42.264;24.536;2023-04-24T02:55:38;99152.09;;;5.76;100.00
39793;BME280;26080;42.264;24.536;2023-04-24T02:58:03;99145.25;;;5.72;100.00
39793;BME280;26080;42.264;24.536;2023-04-24T03:00:29;99146.91;;;5.76;100.00
39793;BME280;26080;42.264;24.536;2023-04-24T03:02:55;99142.56;;;5.75;100.00
39793;BME280;26080;42.264;24.536;2023-04-24T03:05:20;99140.91;;;5.72;100.00
39793;BME280;26080;42.264;24.536;2023-04-24T03:07:46;99146.47;;;5.60;100.00
39793;BME280;26080;42.264;24.536;2023-04-24T03:10:11;99161.31;;;5.56;100.00
39793;BME280;26080;42.264;24.536;2023-04-24T03:12:36;99163.44;;;5.42;100.00
39793;BME280;26080;42.264;24.536;2023-04-24T03:15:05;99171.72;;;5.25;100.00
39793;BME280;26080;42.264;24.536;2023-04-24T03:17:31;99164.22;;;5.15;100.00
39793;BME280;26080;42.264;24.536;2023-04-24T03:19:56;99160.69;;;5.17;100.00
39793;BME280;26080;42.264;24.536;2023-04-24T03:22:22;99122.66;;;4.85;100.00
39793;BME280;26080;42.264;24.536;2023-04-24T03:24:47;99157.41;;;4.78;100.00
39793;BME280;26080;42.264;24.536;2023-04-24T03:27:12;99161.88;;;4.73;100.00
39793;BME280;26080;42.264;24.536;2023-04-24T03:29:38;99162.91;;;4.66;100.00
39793;BME280;26080;42.264;24.536;2023-04-24T03:32:03;99165.59;;;4.63;100.00
39793;BME280;26080;42.264;24.536;2023-04-24T03:34:29;99165.47;;;4.69;100.00
39793;BME280;26080;42.264;24.536;2023-04-24T03:36:54;99164.47;;;4.73;100.00
39793;BME280;26080;42.264;24.536;2023-04-24T03:39:20;99172.66;;;4.90;100.00
39793;BME280;26080;42.264;24.536;2023-04-24T03:41:45;99177.63;;;4.99;100.00
39793;BME280;26080;42.264;24.536;2023-04-24T03:44:10;99184.84;;;5.21;100.00
39793;BME280;26080;42.264;24.536;2023-04-24T03:46:36;99180.66;;;5.46;100.00
39793;BME280;26080;42.264;24.536;2023-04-24T03:49:01;99139.63;;;5.28;100.00
39793;BME280;26080;42.264;24.536;2023-04-24T03:51:27;99172.91;;;5.45;100.00
39793;BME280;26080;42.264;24.536;2023-04-24T03:53:53;99170.34;;;5.43;100.00
39793;BME280;26080;42.264;24.536;2023-04-24T03:56:18;99178.25;;;5.70;100.00
39793;BME280;26080;42.264;24.536;2023-04-24T03:58:45;99179.47;;;5.86;100.00
39793;BME280;26080;42.264;24.536;2023-04-24T04:01:10;99181.03;;;5.93;100.00
39793;BME280;26080;42.264;24.536;2023-04-24T04:03:36;99149.97;;;5.90;100.00
39793;BME280;26080;42.264;24.536;2023-04-24T04:06:02;99143.28;;;6.09;100.00
39793;BME280;26080;42.264;24.536;2023-04-24T04:08:28;99170.94;;;6.38;100.00
39793;BME280;26080;42.264;24.536;2023-04-24T04:10:53;99173.78;;;6.57;100.00
39793;BME280;26080;42.264;24.536;2023-04-24T04:13:19;99177.44;;;6.78;100.00
39793;BME280;26080;42.264;24.536;2023-04-24T04:15:44;99183.88;;;6.93;100.00
39793;BME280;26080;42.264;24.536;2023-04-24T04:18:09;99157.59;;;6.99;100.00
39793;BME280;26080;42.264;24.536;2023-04-24T04:20:35;99182.53;;;7.31;100.00
39793;BME280;26080;42.264;24.536;2023-04-24T04:23:00;99189.50;;;7.54;100.00
39793;BME280;26080;42.264;24.536;2023-04-24T04:25:26;99189.63;;;7.74;100.00
39793;BME280;26080;42.264;24.536;2023-04-24T04:27:51;99185.84;;;8.05;100.00
39793;BME280;26080;42.264;24.536;2023-04-24T04:30:17;99173.03;;;8.20;100.00
39793;BME280;26080;42.264;24.536;2023-04-24T04:32:43;99188.38;;;8.51;100.00
39793;BME280;26080;42.264;24.536;2023-04-24T04:35:09;99194.16;;;8.80;100.00
39793;BME280;26080;42.264;24.536;2023-04-24T04:37:35;99191.16;;;9.09;100.00
39793;BME280;26080;42.264;24.536;2023-04-24T04:40:01;99191.03;;;9.33;100.00
39793;BME280;26080;42.264;24.536;2023-04-24T04:42:31;99192.88;;;9.49;100.00
39793;BME280;26080;42.264;24.536;2023-04-24T04:44:57;99184.56;;;9.60;100.00
39793;BME280;26080;42.264;24.536;2023-04-24T04:47:23;99192.34;;;9.80;100.00
39793;BME280;26080;42.264;24.536;2023-04-24T04:49:49;99198.50;;;9.79;100.00
39793;BME280;26080;42.264;24.536;2023-04-24T04:52:16;99207.88;;;9.84;100.00
39793;BME280;26080;42.264;24.536;2023-04-24T04:54:42;99205.19;;;9.85;100.00
39793;BME280;26080;42.264;24.536;2023-04-24T04:57:08;99196.72;;;9.99;100.00
39793;BME280;26080;42.264;24.536;2023-04-24T04:59:34;99170.06;;;9.91;100.00
39793;BME280;26080;42.264;24.536;2023-04-24T05:01:59;99203.78;;;10.16;100.00
39793;BME280;26080;42.264;24.536;2023-04-24T05:04:25;99200.06;;;10.21;100.00
39793;BME280;26080;42.264;24.536;2023-04-24T05:06:51;99172.25;;;10.19;100.00
39793;BME280;26080;42.264;24.536;2023-04-24T05:09:17;99180.78;;;10.41;100.00
39793;BME280;26080;42.264;24.536;2023-04-24T05:11:42;99174.09;;;10.53;100.00
39793;BME280;26080;42.264;24.536;2023-04-24T05:14:08;99170.88;;;10.65;100.00
39793;BME280;26080;42.264;24.536;2023-04-24T05:16:33;99173.03;;;10.74;100.00
39793;BME280;26080;42.264;24.536;2023-04-24T05:18:59;99164.72;;;10.83;100.00
39793;BME280;26080;42.264;24.536;2023-04-24T05:21:25;99157.22;;;10.93;100.00
39793;BME280;26080;42.264;24.536;2023-04-24T05:23:50;99157.78;;;11.00;100.00
39793;BME280;26080;42.264;24.536;2023-04-24T05:26:16;99155.25;;;10.98;100.00
39793;BME280;26080;42.264;24.536;2023-04-24T05:28:41;99159.63;;;11.15;100.00
39793;BME280;26080;42.264;24.536;2023-04-24T05:31:06;99160.97;;;11.39;100.00
39793;BME280;26080;42.264;24.536;2023-04-24T05:33:32;99167.00;;;11.57;100.00
39793;BME280;26080;42.264;24.536;2023-04-24T05:35:57;99156.44;;;11.74;100.00
39793;BME280;26080;42.264;24.536;2023-04-24T05:38:23;99146.50;;;11.64;100.00
39793;BME280;26080;42.264;24.536;2023-04-24T05:40:48;99168.13;;;11.69;100.00
39793;BME280;26080;42.264;24.536;2023-04-24T05:43:14;99149.41;;;11.59;100.00
39793;BME280;26080;42.264;24.536;2023-04-24T05:45:39;99177.50;;;11.73;100.00
39793;BME280;26080;42.264;24.536;2023-04-24T05:48:05;99176.31;;;11.78;100.00
39793;BME280;26080;42.264;24.536;2023-04-24T05:50:31;99172.09;;;11.76;100.00
39793;BME280;26080;42.264;24.536;2023-04-24T05:52:56;99175.47;;;11.78;100.00
39793;BME280;26080;42.264;24.536;2023-04-24T05:55:26;99178.75;;;11.83;100.00
39793;BME280;26080;42.264;24.536;2023-04-24T05:57:52;99177.72;;;12.01;100.00
39793;BME280;26080;42.264;24.536;2023-04-24T06:00:18;99168.44;;;12.11;100.00
39793;BME280;26080;42.264;24.536;2023-04-24T06:02:45;99173.81;;;12.40;100.00
39793;BME280;26080;42.264;24.536;2023-04-24T06:05:10;99175.44;;;12.72;100.00
39793;BME280;26080;42.264;24.536;2023-04-24T06:07:36;99170.34;;;12.99;100.00
39793;BME280;26080;42.264;24.536;2023-04-24T06:10:02;99171.75;;;13.21;100.00
39793;BME280;26080;42.264;24.536;2023-04-24T06:12:27;99159.63;;;13.32;100.00
39793;BME280;26080;42.264;24.536;2023-04-24T06:14:53;99178.50;;;13.68;100.00
39793;BME280;26080;42.264;24.536;2023-04-24T06:17:21;99168.84;;;13.54;100.00
39793;BME280;26080;42.264;24.536;2023-04-24T06:19:46;99166.78;;;13.59;100.00
39793;BME280;26080;42.264;24.536;2023-04-24T06:22:12;99173.94;;;13.71;100.00
39793;BME280;26080;42.264;24.536;2023-04-24T06:24:39;99175.50;;;13.74;100.00
39793;BME280;26080;42.264;24.536;2023-04-24T06:27:05;99130.59;;;13.62;100.00
39793;BME280;26080;42.264;24.536;2023-04-24T06:29:39;99169.50;;;13.86;100.00
39793;BME280;26080;42.264;24.536;2023-04-24T06:32:05;99151.91;;;13.86;100.00
39793;BME280;26080;42.264;24.536;2023-04-24T06:34:31;99179.44;;;13.81;100.00
39793;BME280;26080;42.264;24.536;2023-04-24T06:36:58;99154.91;;;13.80;100.00
39793;BME280;26080;42.264;24.536;2023-04-24T06:39:23;99157.81;;;13.90;100.00
39793;BME280;26080;42.264;24.536;2023-04-24T06:41:48;99189.09;;;14.09;100.00
39793;BME280;26080;42.264;24.536;2023-04-24T06:44:14;99188.06;;;13.97;100.00
39793;BME280;26080;42.264;24.536;2023-04-24T06:46:40;99180.31;;;14.22;100.00
39793;BME280;26080;42.264;24.536;2023-04-24T06:49:06;99177.63;;;14.37;100.00
39793;BME280;26080;42.264;24.536;2023-04-24T06:51:31;99179.72;;;14.32;100.00
39793;BME280;26080;42.264;24.536;2023-04-24T06:53:58;99186.19;;;14.40;100.00
39793;BME280;26080;42.264;24.536;2023-04-24T06:56:25;99184.50;;;14.39;100.00
39793;BME280;26080;42.264;24.536;2023-04-24T06:58:51;99188.69;;;14.29;100.00
39793;BME280;26080;42.264;24.536;2023-04-24T07:01:16;99187.91;;;14.00;100.00
39793;BME280;26080;42.264;24.536;2023-04-24T07:03:42;99189.88;;;13.82;100.00
39793;BME280;26080;42.264;24.536;2023-04-24T07:06:09;99162.56;;;13.98;100.00
39793;BME280;26080;42.264;24.536;2023-04-24T07:08:35;99181.50;;;14.31;100.00
39793;BME280;26080;42.264;24.536;2023-04-24T07:11:01;99187.03;;;14.41;100.00
39793;BME280;26080;42.264;24.536;2023-04-24T07:13:26;99187.03;;;14.41;100.00
39793;BME280;26080;42.264;24.536;2023-04-24T07:15:53;99171.81;;;14.46;100.00
39793;BME280;26080;42.264;24.536;2023-04-24T07:18:20;99173.19;;;14.37;100.00
39793;BME280;26080;42.264;24.536;2023-04-24T07:20:46;99175.66;;;14.40;100.00
39793;BME280;26080;42.264;24.536;2023-04-24T07:23:12;99173.59;;;14.45;100.00
39793;BME280;26080;42.264;24.536;2023-04-24T07:25:37;99185.59;;;14.08;100.00
39793;BME280;26080;42.264;24.536;2023-04-24T07:28:03;99188.75;;;14.01;100.00
39793;BME280;26080;42.264;24.536;2023-04-24T07:30:30;99182.03;;;14.09;100.00
39793;BME280;26080;42.264;24.536;2023-04-24T07:32:55;99176.63;;;14.25;100.00
39793;BME280;26080;42.264;24.536;2023-04-24T07:35:21;99162.66;;;14.37;100.00
39793;BME280;26080;42.264;24.536;2023-04-24T07:37:47;99172.59;;;14.61;100.00
39793;BME280;26080;42.264;24.536;2023-04-24T07:40:13;99162.03;;;14.61;100.00
39793;BME280;26080;42.264;24.536;2023-04-24T07:42:38;99168.78;;;14.65;100.00
39793;BME280;26080;42.264;24.536;2023-04-24T07:45:04;99168.13;;;15.01;100.00
39793;BME280;26080;42.264;24.536;2023-04-24T07:47:31;99142.69;;;14.87;100.00
39793;BME280;26080;42.264;24.536;2023-04-24T07:50:00;99175.84;;;15.17;100.00
39793;BME280;26080;42.264;24.536;2023-04-24T07:52:25;99175.84;;;15.04;100.00
39793;BME280;26080;42.264;24.536;2023-04-24T07:54:51;99139.63;;;14.68;100.00
39793;BME280;26080;42.264;24.536;2023-04-24T07:57:24;99163.78;;;14.47;100.00
39793;BME280;26080;42.264;24.536;2023-04-24T07:59:49;99166.09;;;14.25;100.00
39793;BME280;26080;42.264;24.536;2023-04-24T08:02:15;99167.41;;;13.91;100.00
39793;BME280;26080;42.264;24.536;2023-04-24T08:04:40;99164.13;;;13.87;100.00
39793;BME280;26080;42.264;24.536;2023-04-24T08:07:06;99167.94;;;13.96;100.00
39793;BME280;26080;42.264;24.536;2023-04-24T08:09:31;99143.81;;;13.89;100.00
39793;BME280;26080;42.264;24.536;2023-04-24T08:11:56;99173.00;;;14.13;100.00
39793;BME280;26080;42.264;24.536;2023-04-24T08:14:22;99167.50;;;14.31;100.00
39793;BME280;26080;42.264;24.536;2023-04-24T08:16:47;99162.81;;;14.21;100.00
39793;BME280;26080;42.264;24.536;2023-04-24T08:19:13;99151.69;;;14.31;100.00
39793;BME280;26080;42.264;24.536;2023-04-24T08:21:38;99154.94;;;14.48;100.00
39793;BME280;26080;42.264;24.536;2023-04-24T08:24:04;99157.31;;;14.66;100.00
39793;BME280;26080;42.264;24.536;2023-04-24T08:26:32;99158.91;;;14.68;100.00
39793;BME280;26080;42.264;24.536;2023-04-24T08:28:58;99158.19;;;14.79;100.00
39793;BME280;26080;42.264;24.536;2023-04-24T08:31:23;99163.75;;;14.74;100.00
39793;BME280;26080;42.264;24.536;2023-04-24T08:33:50;99153.81;;;14.65;100.00
39793;BME280;26080;42.264;24.536;2023-04-24T08:36:15;99152.34;;;14.61;100.00
39793;BME280;26080;42.264;24.536;2023-04-24T08:38:42;99154.03;;;14.62;100.00
39793;BME280;26080;42.264;24.536;2023-04-24T08:41:07;99126.50;;;14.54;100.00
39793;BME280;26080;42.264;24.536;2023-04-24T08:43:33;99139.06;;;14.63;100.00
39793;BME280;26080;42.264;24.536;2023-04-24T08:46:04;99129.78;;;14.57;100.00
39793;BME280;26080;42.264;24.536;2023-04-24T08:48:30;99125.38;;;14.70;100.00
39793;BME280;26080;42.264;24.536;2023-04-24T08:50:57;99128.44;;;14.77;100.00
39793;BME280;26080;42.264;24.536;2023-04-24T08:53:24;99124.84;;;14.78;100.00
39793;BME280;26080;42.264;24.536;2023-04-24T08:55:51;99113.94;;;14.97;100.00
39793;BME280;26080;42.264;24.536;2023-04-24T08:58:26;99107.91;;;15.20;100.00
39793;BME280;26080;42.264;24.536;2023-04-24T09:00:56;99110.75;;;15.43;100.00
39793;BME280;26080;42.264;24.536;2023-04-24T09:03:22;99103.56;;;15.19;100.00
39793;BME280;26080;42.264;24.536;2023-04-24T09:05:49;99108.56;;;15.24;100.00
39793;BME280;26080;42.264;24.536;2023-04-24T09:08:18;99107.88;;;15.33;100.00
39793;BME280;26080;42.264;24.536;2023-04-24T09:10:44;99102.81;;;15.43;100.00
39793;BME280;26080;42.264;24.536;2023-04-24T09:13:09;99085.53;;;15.38;100.00
39793;BME280;26080;42.264;24.536;2023-04-24T09:15:36;99094.56;;;15.60;100.00
39793;BME280;26080;42.264;24.536;2023-04-24T09:18:04;99092.09;;;15.82;100.00
39793;BME280;26080;42.264;24.536;2023-04-24T09:20:30;99095.72;;;16.05;100.00
39793;BME280;26080;42.264;24.536;2023-04-24T09:22:57;99075.25;;;15.96;100.00
39793;BME280;26080;42.264;24.536;2023-04-24T09:25:30;99090.66;;;16.02;100.00
39793;BME280;26080;42.264;24.536;2023-04-24T09:28:00;99094.69;;;15.95;100.00
39793;BME280;26080;42.264;24.536;2023-04-24T09:30:26;99085.81;;;15.96;100.00
39793;BME280;26080;42.264;24.536;2023-04-24T09:33:12;99082.56;;;16.16;100.00
39793;BME280;26080;42.264;24.536;2023-04-24T09:35:50;99084.56;;;16.37;98.76
39793;BME280;26080;42.264;24.536;2023-04-24T09:38:16;99066.38;;;16.56;98.93
39793;BME280;26080;42.264;24.536;2023-04-24T09:40:41;99080.47;;;17.03;95.49
39793;BME280;26080;42.264;24.536;2023-04-24T09:43:10;99075.66;;;17.30;93.90
39793;BME280;26080;42.264;24.536;2023-04-24T09:45:37;99072.41;;;17.71;92.98
39793;BME280;26080;42.264;24.536;2023-04-24T09:48:04;99065.97;;;17.96;90.09
39793;BME280;26080;42.264;24.536;2023-04-24T09:50:31;99060.88;;;18.04;88.07
39793;BME280;26080;42.264;24.536;2023-04-24T09:52:59;99048.97;;;18.10;86.46
39793;BME280;26080;42.264;24.536;2023-04-24T09:55:26;99050.16;;;18.38;86.49
39793;BME280;26080;42.264;24.536;2023-04-24T10:00:25;99038.53;;;18.50;82.56
39793;BME280;26080;42.264;24.536;2023-04-24T10:03:02;99032.56;;;18.58;80.59
39793;BME280;26080;42.264;24.536;2023-04-24T10:05:32;99021.50;;;18.32;81.70
39793;BME280;26080;42.264;24.536;2023-04-24T10:08:12;99021.22;;;18.35;83.73
39793;BME280;26080;42.264;24.536;2023-04-24T10:10:40;99021.63;;;18.10;81.71
39793;BME280;26080;42.264;24.536;2023-04-24T10:13:08;98986.97;;;17.69;81.44
39793;BME280;26080;42.264;24.536;2023-04-24T10:15:34;98984.06;;;17.50;84.48
39793;BME280;26080;42.264;24.536;2023-04-24T10:18:00;99016.25;;;17.89;84.76
39793;BME280;26080;42.264;24.536;2023-04-24T10:20:28;99007.31;;;17.69;82.58
39793;BME280;26080;42.264;24.536;2023-04-24T10:22:56;98991.41;;;17.58;85.19
39793;BME280;26080;42.264;24.536;2023-04-24T10:25:24;99014.03;;;17.73;81.05
39793;BME280;26080;42.264;24.536;2023-04-24T10:27:51;99006.88;;;17.85;82.71
39793;BME280;26080;42.264;24.536;2023-04-24T10:30:20;99003.59;;;17.92;81.35
39793;BME280;26080;42.264;24.536;2023-04-24T10:32:46;99002.31;;;18.08;82.27
39793;BME280;26080;42.264;24.536;2023-04-24T10:35:12;98999.34;;;18.01;83.65
39793;BME280;26080;42.264;24.536;2023-04-24T10:38:12;98998.72;;;18.09;83.33
39793;BME280;26080;42.264;24.536;2023-04-24T10:40:37;98978.78;;;17.93;82.97
39793;BME280;26080;42.264;24.536;2023-04-24T10:43:07;98996.44;;;18.04;83.57
39793;BME280;26080;42.264;24.536;2023-04-24T10:45:37;98948.19;;;18.00;84.53
39793;BME280;26080;42.264;24.536;2023-04-24T10:48:09;98988.06;;;17.99;83.37
39793;BME280;26080;42.264;24.536;2023-04-24T10:50:47;98987.41;;;18.06;86.82
39793;BME280;26080;42.264;24.536;2023-04-24T10:53:17;98977.97;;;18.14;87.13
39793;BME280;26080;42.264;24.536;2023-04-24T10:55:51;98963.72;;;18.26;83.41
39793;BME280;26080;42.264;24.536;2023-04-24T10:58:21;98975.59;;;18.52;82.62
39793;BME280;26080;42.264;24.536;2023-04-24T11:00:56;98969.75;;;18.58;81.42
39793;BME280;26080;42.264;24.536;2023-04-24T11:03:33;98964.34;;;18.81;81.80
39793;BME280;26080;42.264;24.536;2023-04-24T11:06:07;98961.88;;;18.99;78.34
39793;BME280;26080;42.264;24.536;2023-04-24T11:08:39;98945.16;;;19.08;76.57
39793;BME280;26080;42.264;24.536;2023-04-24T11:11:15;98935.69;;;19.15;77.29
39793;BME280;26080;42.264;24.536;2023-04-24T11:18:51;98936.44;;;19.36;77.90
39793;BME280;26080;42.264;24.536;2023-04-24T11:21:19;98938.69;;;19.41;76.43
39793;BME280;26080;42.264;24.536;2023-04-24T11:23:45;98933.63;;;19.28;77.22
39793;BME280;26080;42.264;24.536;2023-04-24T11:26:20;98932.09;;;19.26;78.62
39793;BME280;26080;42.264;24.536;2023-04-24T11:28:47;98926.66;;;18.87;78.47
39793;BME280;26080;42.264;24.536;2023-04-24T11:31:39;98925.75;;;18.77;77.07
39793;BME280;26080;42.264;24.536;2023-04-24T11:34:08;98918.41;;;18.80;78.60
39793;BME280;26080;42.264;24.536;2023-04-24T11:36:38;98923.91;;;18.98;77.83
39793;BME280;26080;42.264;24.536;2023-04-24T11:39:04;98907.94;;;18.79;80.41
39793;BME280;26080;42.264;24.536;2023-04-24T11:41:29;98892.63;;;18.92;81.05
39793;BME280;26080;42.264;24.536;2023-04-24T11:43:56;98891.78;;;19.01;80.52
39793;BME280;26080;42.264;24.536;2023-04-24T11:46:22;98886.53;;;19.20;79.69
39793;BME280;26080;42.264;24.536;2023-04-24T11:48:47;98892.47;;;19.03;77.69
39793;BME280;26080;42.264;24.536;2023-04-24T11:51:14;98899.66;;;19.22;83.49
39793;BME280;26080;42.264;24.536;2023-04-24T11:53:39;98892.53;;;19.32;79.09
39793;BME280;26080;42.264;24.536;2023-04-24T11:56:05;98885.72;;;19.39;78.49
39793;BME280;26080;42.264;24.536;2023-04-24T11:58:35;98879.56;;;19.48;76.91
39793;BME280;26080;42.264;24.536;2023-04-24T12:01:01;98864.75;;;19.46;75.39
39793;BME280;26080;42.264;24.536;2023-04-24T12:03:27;98860.03;;;19.59;73.16
39793;BME280;26080;42.264;24.536;2023-04-24T12:05:52;98858.34;;;19.58;74.02
39793;BME280;26080;42.264;24.536;2023-04-24T12:08:28;98838.34;;;19.54;76.01
39793;BME280;26080;42.264;24.536;2023-04-24T12:10:53;98837.53;;;19.63;73.49
39793;BME280;26080;42.264;24.536;2023-04-24T12:13:19;98842.53;;;19.86;72.67
39793;BME280;26080;42.264;24.536;2023-04-24T12:15:45;98833.75;;;19.66;69.66
39793;BME280;26080;42.264;24.536;2023-04-24T12:18:13;98828.16;;;19.59;70.84
39793;BME280;26080;42.264;24.536;2023-04-24T12:20:40;98830.66;;;19.70;72.35
39793;BME280;26080;42.264;24.536;2023-04-24T12:23:05;98826.75;;;19.74;74.20
39793;BME280;26080;42.264;24.536;2023-04-24T12:25:32;98819.19;;;19.79;73.94
39793;BME280;26080;42.264;24.536;2023-04-24T12:28:10;98824.75;;;19.96;74.64
39793;BME280;26080;42.264;24.536;2023-04-24T12:30:46;98814.63;;;20.09;75.27
39793;BME280;26080;42.264;24.536;2023-04-24T12:33:20;98796.38;;;20.43;74.48
39793;BME280;26080;42.264;24.536;2023-04-24T12:35:51;98805.56;;;20.49;72.65
39793;BME280;26080;42.264;24.536;2023-04-24T12:38:22;98786.13;;;20.38;71.21
39793;BME280;26080;42.264;24.536;2023-04-24T12:40:47;98765.34;;;20.24;70.41
39793;BME280;26080;42.264;24.536;2023-04-24T12:43:18;98780.13;;;20.36;69.35
39793;BME280;26080;42.264;24.536;2023-04-24T12:45:44;98772.66;;;20.50;71.56
39793;BME280;26080;42.264;24.536;2023-04-24T12:48:10;98765.78;;;20.57;66.16
39793;BME280;26080;42.264;24.536;2023-04-24T12:50:36;98749.44;;;20.42;67.06